Perrysville, Ohio
Current Conditions -  °F | °C
As of 6:52 AM on Monday 24 Nov 2014 (Local Time) from KMFD Reporting Station
Overcast Overcast  
Wind Chill: 58°   Ceiling: 2500
Heat Index: 58°   Visibility: 10mi
Dew Point: 54°   Wind: 22mph
Humidity: 87%   Direction: 190°S
Pressure: 29.29"   Gusts: 40mph
Location:  40.66°N, 82.31°W
Report Text: KMFD 241152Z 19019G35KT 10SM SCT017 BKN025 OVC031 14/12 A2929 RMK AO2 PK WND 19037/1118 SLP914 60009 70040 T01440122 10144 20133 50010
Loading
Personal Weather Stations






























Interactive Weather Map New forecast layout! Learn more

10-Day Weather Forecast

Advertisements
Track Severe Weather on mobile